createdAt,value
2023-02-13T00:02:50.169Z,5.80
2023-02-13T00:05:51.934Z,8.40
2023-02-13T00:08:53.864Z,8.10
2023-02-13T00:11:55.551Z,7.60
2023-02-13T00:14:57.416Z,6.80
2023-02-13T00:17:59.085Z,8.50
2023-02-13T00:21:02.847Z,6.40
2023-02-13T00:24:05.161Z,8.10
2023-02-13T00:27:06.932Z,7.70
2023-02-13T00:30:09.397Z,5.80
2023-02-13T00:33:11.057Z,5.80
2023-02-13T00:36:22.012Z,6.60
2023-02-13T00:39:23.693Z,7.90
2023-02-13T00:42:26.790Z,6.60
2023-02-13T00:45:28.697Z,6.90
2023-02-13T00:48:32.764Z,6.30
2023-02-13T00:51:34.941Z,7.10
2023-02-13T00:54:36.595Z,7.30
2023-02-13T00:57:38.358Z,6.90
2023-02-13T01:00:40.425Z,6.00
2023-02-13T01:03:42.260Z,8.50
2023-02-13T01:06:44.063Z,6.30
2023-02-13T01:09:45.741Z,6.10
2023-02-13T01:12:47.413Z,6.00
2023-02-13T01:15:49.526Z,6.60
2023-02-13T01:18:51.437Z,8.00
2023-02-13T01:21:53.587Z,8.90
2023-02-13T01:24:55.346Z,5.90
2023-02-13T01:27:57.017Z,5.40
2023-02-13T01:30:59.318Z,5.90
2023-02-13T01:34:02.276Z,5.20
2023-02-13T01:37:04.033Z,6.80
2023-02-13T01:40:07.338Z,6.60
2023-02-13T01:43:10.264Z,7.00
2023-02-13T01:46:13.442Z,8.00
2023-02-13T01:49:24.182Z,6.30
2023-02-13T01:52:25.945Z,8.00
2023-02-13T01:55:28.422Z,8.30
2023-02-13T01:58:34.605Z,5.30
2023-02-13T02:01:37.148Z,8.60
2023-02-13T02:04:40.407Z,7.00
2023-02-13T02:07:46.528Z,7.40
2023-02-13T02:10:48.598Z,5.70
2023-02-13T02:13:50.636Z,5.60
2023-02-13T02:17:02.234Z,6.40
2023-02-13T02:20:13.345Z,6.50
2023-02-13T02:23:36.304Z,10.10
2023-02-13T02:26:50.458Z,6.70
2023-02-13T02:30:16.674Z,6.40
2023-02-13T02:33:31.164Z,6.50
2023-02-13T02:36:59.334Z,4.40
2023-02-13T02:40:08.785Z,7.00
2023-02-13T02:43:42.799Z,6.10
2023-02-13T02:47:32.784Z,5.90
2023-02-13T02:50:53.703Z,7.10
2023-02-13T02:54:48.457Z,5.10
2023-02-13T02:58:17.826Z,4.50
2023-02-13T03:01:40.457Z,5.40
2023-02-13T03:05:03.315Z,6.00
2023-02-13T03:08:05.822Z,6.40
2023-02-13T03:11:26.478Z,7.70
2023-02-13T03:14:28.609Z,6.40
2023-02-13T03:17:49.478Z,6.30
2023-02-13T03:21:30.383Z,8.00
2023-02-13T03:24:44.404Z,6.70
2023-02-13T03:28:43.520Z,5.20
2023-02-13T03:31:54.210Z,5.60
2023-02-13T03:35:26.421Z,7.90
2023-02-13T03:38:46.834Z,5.00
2023-02-13T03:42:02.709Z,5.00
2023-02-13T03:45:37.141Z,4.60
2023-02-13T03:48:59.328Z,6.20
2023-02-13T03:52:32.426Z,6.00
2023-02-13T03:55:56.605Z,6.40
2023-02-13T03:59:16.180Z,4.80
2023-02-13T04:02:22.880Z,5.50
2023-02-13T04:05:28.628Z,5.50
2023-02-13T04:08:30.684Z,5.60
2023-02-13T04:11:47.474Z,6.30
2023-02-13T04:14:59.098Z,7.40
2023-02-13T04:18:20.527Z,5.60
2023-02-13T04:21:22.380Z,8.00
2023-02-13T04:24:25.437Z,6.30
2023-02-13T04:27:28.436Z,6.40
2023-02-13T04:30:30.489Z,6.80
2023-02-13T04:33:32.129Z,6.10
2023-02-13T04:36:34.358Z,7.40
2023-02-13T04:39:36.122Z,5.50
2023-02-13T04:42:37.786Z,6.50
2023-02-13T04:45:39.508Z,6.20
2023-02-13T04:48:41.246Z,6.10
2023-02-13T04:51:42.973Z,6.50
2023-02-13T04:54:44.697Z,5.90
2023-02-13T04:57:46.497Z,6.20
2023-02-13T05:00:48.252Z,7.40
2023-02-13T05:03:50.230Z,6.90
2023-02-13T05:06:52.296Z,7.00
2023-02-13T05:09:54.017Z,7.20
2023-02-13T05:12:55.674Z,5.50
2023-02-13T05:15:57.531Z,6.70
2023-02-13T05:18:59.280Z,5.50
2023-02-13T05:22:19.738Z,4.90
2023-02-13T05:25:21.601Z,10.70
2023-02-13T05:28:42.046Z,8.10
2023-02-13T05:31:43.870Z,7.90
2023-02-13T05:34:45.734Z,6.10
2023-02-13T05:37:47.595Z,7.70
2023-02-13T05:40:49.364Z,6.80
2023-02-13T05:43:51.039Z,7.20
2023-02-13T05:46:53.437Z,5.80
2023-02-13T05:49:55.260Z,5.70
2023-02-13T05:52:57.023Z,7.50
2023-02-13T05:55:58.651Z,6.20
2023-02-13T05:59:00.280Z,7.20
2023-02-13T06:02:02.032Z,7.20
2023-02-13T06:05:03.967Z,5.70
2023-02-13T06:08:05.741Z,7.30
2023-02-13T06:11:07.715Z,9.60
2023-02-13T06:14:09.366Z,6.30
2023-02-13T06:17:11.078Z,6.50
2023-02-13T06:20:12.985Z,6.70
2023-02-13T06:23:15.045Z,5.30
2023-02-13T06:26:16.772Z,8.80
2023-02-13T06:29:18.668Z,6.50
2023-02-13T06:32:20.311Z,8.60
2023-02-13T06:35:22.792Z,8.60
2023-02-13T06:38:24.517Z,10.10
2023-02-13T06:41:26.272Z,10.50
2023-02-13T06:44:27.917Z,6.20
2023-02-13T06:47:29.832Z,6.90
2023-02-13T06:50:31.470Z,6.00
2023-02-13T06:53:33.242Z,8.60
2023-02-13T06:56:35.001Z,7.40
2023-02-13T06:59:36.662Z,8.00
2023-02-13T07:02:38.330Z,7.50
2023-02-13T07:05:41.915Z,6.70
2023-02-13T07:08:43.612Z,8.60
2023-02-13T07:11:45.421Z,5.80
2023-02-13T07:14:47.077Z,9.00
2023-02-13T07:17:48.748Z,7.90
2023-02-13T07:20:50.397Z,5.90
2023-02-13T07:23:52.464Z,10.00
2023-02-13T07:26:54.135Z,13.00
2023-02-13T07:29:57.708Z,9.00
2023-02-13T07:33:03.805Z,11.30
2023-02-13T07:36:05.867Z,7.50
2023-02-13T07:39:07.753Z,9.60
2023-02-13T07:42:09.467Z,6.40
2023-02-13T07:45:12.160Z,7.90
2023-02-13T07:48:13.830Z,8.30
2023-02-13T07:51:16.516Z,11.00
2023-02-13T07:54:18.215Z,12.10
2023-02-13T07:57:19.960Z,11.10
2023-02-13T08:00:22.458Z,12.70
2023-02-13T08:03:24.211Z,10.40
2023-02-13T08:06:26.171Z,9.10
2023-02-13T08:09:46.164Z,10.90
2023-02-13T08:12:47.881Z,11.90
2023-02-13T08:15:49.570Z,11.10
2023-02-13T08:18:51.237Z,14.60
2023-02-13T08:21:52.905Z,11.90
2023-02-13T08:24:54.711Z,12.20
2023-02-13T08:27:56.402Z,11.70
2023-02-13T08:30:58.155Z,10.60
2023-02-13T08:34:00.236Z,10.40
2023-02-13T08:37:02.752Z,11.00
2023-02-13T08:40:05.288Z,12.00
2023-02-13T08:43:08.514Z,10.40
2023-02-13T08:46:10.290Z,9.10
2023-02-13T08:49:12.034Z,10.30
2023-02-13T08:52:13.674Z,9.00
2023-02-13T08:55:15.464Z,11.50
2023-02-13T08:58:17.092Z,10.00
2023-02-13T09:01:19.024Z,8.80
2023-02-13T09:04:20.703Z,12.20
2023-02-13T09:07:22.406Z,11.10
2023-02-13T09:10:24.150Z,11.40
2023-02-13T09:13:26.095Z,11.80
2023-02-13T09:16:27.873Z,11.30
2023-02-13T09:19:29.614Z,11.30
2023-02-13T09:22:31.269Z,12.70
2023-02-13T09:25:32.927Z,15.20
2023-02-13T09:28:35.903Z,14.60
2023-02-13T09:31:37.831Z,12.70
2023-02-13T09:34:39.525Z,11.90
2023-02-13T09:37:41.247Z,15.30
2023-02-13T09:40:53.792Z,18.90
2023-02-13T09:43:59.307Z,11.70
2023-02-13T09:47:35.019Z,12.90
2023-02-13T09:50:36.744Z,15.20
2023-02-13T09:53:43.726Z,12.30
2023-02-13T09:57:07.364Z,12.20
2023-02-13T10:00:21.664Z,14.00
2023-02-13T10:03:27.208Z,13.50
2023-02-13T10:06:33.225Z,14.50
2023-02-13T10:09:48.602Z,17.80
2023-02-13T10:13:07.661Z,13.30
2023-02-13T10:16:28.206Z,13.70
2023-02-13T10:19:36.636Z,12.60
2023-02-13T10:22:42.455Z,14.70
2023-02-13T10:26:05.219Z,13.90
2023-02-13T10:29:47.232Z,14.30
2023-02-13T10:33:19.568Z,17.30
2023-02-13T10:36:27.431Z,17.20
2023-02-13T10:39:30.891Z,19.90
2023-02-13T10:42:44.046Z,16.90
2023-02-13T10:46:07.066Z,15.50
2023-02-13T10:53:01.712Z,18.10
2023-02-13T10:56:19.134Z,14.30
2023-02-13T10:59:35.142Z,19.80
2023-02-13T11:02:37.219Z,17.40
2023-02-13T11:05:40.111Z,13.80
2023-02-13T11:08:46.672Z,12.30
2023-02-13T11:11:48.439Z,15.90
2023-02-13T11:14:58.301Z,15.70
2023-02-13T11:18:11.346Z,18.70
2023-02-13T11:21:24.129Z,21.10
2023-02-13T11:24:27.546Z,17.60
2023-02-13T11:27:35.439Z,17.50
2023-02-13T11:30:39.037Z,18.80
2023-02-13T11:33:41.167Z,16.90
2023-02-13T11:36:42.854Z,15.80
2023-02-13T11:39:46.834Z,13.60
2023-02-13T11:42:50.731Z,16.70
2023-02-13T11:46:22.793Z,18.80
2023-02-13T11:49:25.067Z,17.20
2023-02-13T11:52:29.273Z,16.60
2023-02-13T11:55:32.900Z,15.80
2023-02-13T11:58:34.647Z,18.80
2023-02-13T12:01:36.314Z,15.20
2023-02-13T12:04:38.001Z,12.60
2023-02-13T12:07:40.293Z,20.00
2023-02-13T12:10:42.012Z,20.20
2023-02-13T12:13:44.356Z,17.70
2023-02-13T12:16:50.760Z,14.20
2023-02-13T12:19:54.576Z,16.10
2023-02-13T12:23:07.296Z,14.50
2023-02-13T12:26:28.782Z,21.60
2023-02-13T12:30:09.032Z,19.00
2023-02-13T12:33:29.316Z,17.50
2023-02-13T12:36:36.378Z,13.10
2023-02-13T12:39:42.398Z,16.60
2023-02-13T12:42:54.832Z,17.10
2023-02-13T12:46:20.860Z,14.40
2023-02-13T12:50:01.191Z,17.10
2023-02-13T12:53:25.571Z,17.10
2023-02-13T12:56:27.132Z,14.90
2023-02-13T13:00:36.833Z,12.50
2023-02-13T13:04:00.034Z,15.20
2023-02-13T13:07:20.309Z,16.80
2023-02-13T13:10:27.878Z,17.40
2023-02-13T13:13:35.323Z,15.80
2023-02-13T13:17:03.020Z,21.70
2023-02-13T13:20:11.080Z,14.80
2023-02-13T13:23:20.182Z,11.90
2023-02-13T13:26:35.251Z,20.40
2023-02-13T13:29:44.067Z,16.50
2023-02-13T13:32:46.187Z,15.10
2023-02-13T13:35:53.827Z,18.00
2023-02-13T13:39:14.262Z,16.90
2023-02-13T13:42:25.906Z,17.10
2023-02-13T13:45:47.700Z,16.70
2023-02-13T13:49:08.077Z,16.80
2023-02-13T13:52:25.777Z,25.80
2023-02-13T13:55:47.935Z,20.90
2023-02-13T13:58:51.267Z,17.60
2023-02-13T14:02:18.848Z,19.20
2023-02-13T14:05:33.020Z,19.20
2023-02-13T14:08:40.864Z,16.90
2023-02-13T14:11:46.947Z,15.00
2023-02-13T14:14:49.335Z,17.90
2023-02-13T14:17:53.129Z,21.00
2023-02-13T14:24:03.940Z,14.00
2023-02-13T14:27:06.472Z,19.70
2023-02-13T14:30:34.264Z,18.90
2023-02-13T14:33:36.140Z,16.50
2023-02-13T14:36:45.015Z,17.40
2023-02-13T14:40:18.870Z,15.00
2023-02-13T14:43:30.925Z,18.10
2023-02-13T14:46:41.363Z,18.90
2023-02-13T14:49:44.248Z,15.10
2023-02-13T14:52:47.378Z,19.00
2023-02-13T14:55:56.101Z,16.60
2023-02-13T14:59:17.873Z,18.50
2023-02-13T15:02:33.792Z,18.90
2023-02-13T15:05:35.981Z,13.90
2023-02-13T15:08:43.257Z,17.80
2023-02-13T15:11:45.102Z,17.00
2023-02-13T15:14:46.746Z,19.10
2023-02-13T15:17:48.810Z,21.50
2023-02-13T15:20:53.968Z,19.50
2023-02-13T15:23:56.851Z,16.30
2023-02-13T15:27:01.718Z,17.90
2023-02-13T15:30:23.928Z,20.30
2023-02-13T15:33:28.618Z,15.60
2023-02-13T15:36:36.495Z,18.30
2023-02-13T15:39:38.121Z,18.00
2023-02-13T15:42:39.811Z,27.10
2023-02-13T15:45:43.733Z,19.30
2023-02-13T15:48:45.802Z,21.20
2023-02-13T15:51:48.409Z,20.90
2023-02-13T15:54:52.837Z,20.00
2023-02-13T15:57:56.539Z,19.40
2023-02-13T16:01:04.479Z,18.80
2023-02-13T16:04:08.893Z,25.80
2023-02-13T16:07:12.852Z,24.20
2023-02-13T16:10:26.695Z,23.60
2023-02-13T16:13:28.350Z,22.30
2023-02-13T16:16:33.594Z,28.70
2023-02-13T16:20:00.989Z,25.30
2023-02-13T16:23:07.014Z,22.20
2023-02-13T16:26:13.342Z,22.80
2023-02-13T16:29:21.140Z,25.40
2023-02-13T16:32:41.420Z,26.20
2023-02-13T16:35:57.383Z,21.40
2023-02-13T16:39:11.521Z,22.30
2023-02-13T16:42:13.761Z,25.50
2023-02-13T16:45:24.800Z,24.30
2023-02-13T16:48:26.527Z,25.20
2023-02-13T16:51:36.964Z,24.50
2023-02-13T16:54:44.529Z,24.30
2023-02-13T16:57:46.489Z,19.90
2023-02-13T17:00:50.551Z,22.20
2023-02-13T17:03:53.917Z,20.00
2023-02-13T17:06:56.062Z,20.90
2023-02-13T17:10:06.673Z,23.40
2023-02-13T17:13:20.206Z,21.40
2023-02-13T17:16:22.304Z,25.70
2023-02-13T17:19:24.657Z,20.60
2023-02-13T17:22:31.410Z,24.30
2023-02-13T17:25:34.032Z,23.90
2023-02-13T17:28:35.826Z,21.70
2023-02-13T17:31:37.595Z,27.20
2023-02-13T17:34:39.381Z,23.00
2023-02-13T17:37:42.392Z,25.30
2023-02-13T17:40:45.032Z,21.40
2023-02-13T17:43:46.690Z,24.80
2023-02-13T17:46:48.323Z,25.80
2023-02-13T17:49:50.113Z,20.20
2023-02-13T17:52:51.836Z,25.30
2023-02-13T17:55:53.561Z,27.10
2023-02-13T17:58:55.290Z,26.40
2023-02-13T18:01:56.997Z,23.10
2023-02-13T18:04:58.756Z,24.50
2023-02-13T18:08:02.761Z,22.80
2023-02-13T18:11:10.225Z,23.10
2023-02-13T18:14:11.857Z,25.70
2023-02-13T18:17:13.690Z,25.70
2023-02-13T18:20:20.284Z,25.30
2023-02-13T18:23:21.957Z,26.10
2023-02-13T18:26:23.734Z,25.70
2023-02-13T18:29:26.178Z,24.70
2023-02-13T18:32:27.966Z,23.20
2023-02-13T18:35:29.689Z,24.50
2023-02-13T18:38:31.334Z,25.90
2023-02-13T18:41:33.066Z,29.60
2023-02-13T18:44:36.887Z,29.90
2023-02-13T18:47:38.582Z,26.50
2023-02-13T18:50:41.320Z,26.30
2023-02-13T18:53:43.154Z,30.20
2023-02-13T18:56:48.510Z,24.30
2023-02-13T18:59:50.585Z,26.70
2023-02-13T19:02:53.015Z,25.90
2023-02-13T19:05:54.915Z,24.80
2023-02-13T19:08:57.252Z,22.60
2023-02-13T19:11:58.898Z,25.50
2023-02-13T19:15:04.492Z,25.20
2023-02-13T19:18:06.635Z,24.90
2023-02-13T19:21:08.475Z,23.00
2023-02-13T19:24:12.023Z,26.00
2023-02-13T19:27:13.666Z,22.40
2023-02-13T19:30:15.561Z,24.50
2023-02-13T19:33:17.360Z,24.30
2023-02-13T19:36:22.645Z,23.50
2023-02-13T19:39:24.518Z,27.70
2023-02-13T19:42:27.358Z,24.80
2023-02-13T19:45:29.233Z,27.30
2023-02-13T19:48:31.773Z,25.10
2023-02-13T19:51:35.362Z,23.00
2023-02-13T19:54:37.073Z,23.50
2023-02-13T19:57:38.765Z,23.10
2023-02-13T20:00:40.575Z,22.70
2023-02-13T20:03:42.973Z,23.80
2023-02-13T20:06:44.774Z,22.50
2023-02-13T20:09:46.511Z,21.00
2023-02-13T20:12:53.820Z,21.60
2023-02-13T20:15:55.611Z,21.10
2023-02-13T20:18:59.195Z,23.40
2023-02-13T20:22:01.811Z,22.30
2023-02-13T20:25:03.703Z,27.30
2023-02-13T20:28:05.624Z,26.10
2023-02-13T20:31:12.348Z,26.80
2023-02-13T20:34:14.089Z,24.40
2023-02-13T20:37:16.506Z,24.90
2023-02-13T20:40:18.298Z,24.50
2023-02-13T20:43:21.182Z,21.70
2023-02-13T20:46:23.120Z,27.90
2023-02-13T20:49:26.703Z,24.30
2023-02-13T20:52:28.770Z,26.90
2023-02-13T20:55:31.526Z,23.10
2023-02-13T20:58:33.872Z,23.50
2023-02-13T21:01:40.514Z,27.20
2023-02-13T21:04:42.177Z,25.70
2023-02-13T21:07:43.818Z,25.90
2023-02-13T21:10:45.682Z,28.60
2023-02-13T21:13:48.559Z,20.90
2023-02-13T21:16:50.532Z,27.60
2023-02-13T21:19:52.236Z,24.30
2023-02-13T21:22:54.293Z,24.10
2023-02-13T21:25:56.041Z,24.50
2023-02-13T21:28:58.366Z,26.90
2023-02-13T21:32:00.491Z,21.60
2023-02-13T21:35:02.315Z,23.30
2023-02-13T21:38:04.252Z,26.50
2023-02-13T21:41:10.225Z,26.50
2023-02-13T21:44:16.272Z,24.00
2023-02-13T21:47:18.535Z,27.60
2023-02-13T21:50:22.842Z,22.80
2023-02-13T21:53:24.650Z,30.50
2023-02-13T21:56:29.410Z,22.20
2023-02-13T21:59:31.214Z,27.70
2023-02-13T22:02:32.967Z,23.00
2023-02-13T22:05:34.644Z,27.50
2023-02-13T22:08:36.288Z,25.30
2023-02-13T22:11:38.348Z,24.50
2023-02-13T22:14:39.995Z,26.40
2023-02-13T22:17:41.799Z,25.00
2023-02-13T22:20:44.260Z,24.10
2023-02-13T22:23:46.962Z,25.30
2023-02-13T22:26:48.721Z,26.60
2023-02-13T22:29:51.581Z,28.70
2023-02-13T22:32:53.279Z,25.20
2023-02-13T22:35:55.043Z,25.20
2023-02-13T22:38:56.954Z,23.10
2023-02-13T22:41:58.701Z,23.90
2023-02-13T22:45:00.774Z,24.50
2023-02-13T22:48:03.093Z,23.00
2023-02-13T22:51:06.940Z,23.90
2023-02-13T22:54:10.608Z,24.80
2023-02-13T22:57:12.228Z,27.20
2023-02-13T23:00:15.333Z,26.90
2023-02-13T23:03:17.034Z,20.60
2023-02-13T23:06:19.207Z,21.30
2023-02-13T23:09:20.920Z,27.80
2023-02-13T23:12:40.651Z,25.60
2023-02-13T23:15:42.620Z,29.60
2023-02-13T23:18:45.196Z,26.50
2023-02-13T23:21:47.067Z,25.50
2023-02-13T23:24:48.759Z,26.00
2023-02-13T23:27:50.614Z,21.10
2023-02-13T23:30:52.332Z,23.00
2023-02-13T23:33:54.126Z,21.90
2023-02-13T23:36:55.853Z,23.50
2023-02-13T23:39:57.528Z,22.90
2023-02-13T23:42:59.342Z,24.20
2023-02-13T23:46:04.305Z,24.80
2023-02-13T23:49:07.482Z,27.90
2023-02-13T23:52:09.321Z,27.90
2023-02-13T23:55:10.981Z,24.50
2023-02-13T23:58:12.624Z,22.90
